DEFMS EDLW-EDLP
Flight info
| Callsign | DEFMS |
|---|---|
| Flight time | 0h 32m |
| Altitude | 3500 |
| Route | VFR |
| Aircraft | P28B/L-SDFRY/C |
Departure
| Time | 2026-05-08 20:01 |
|---|---|
| Airport | Dortmund Airport (EDLW) |
Arrival
| Time | 2026-05-08 20:33 |
|---|---|
| Airport | Paderborn Lippstadt Airport (EDLP) |
| Time | Latitude | Longitude | Altitude | Speed | Heading |
|---|---|---|---|---|---|
| 2026-05-08 19:46 | 51.51237 | 7.60514 | 424 ft | 0 kts | 188° |
| 2026-05-08 19:55 | 51.51223 | 7.60453 | 425 ft | 16 kts | 276° |
| 2026-05-08 19:55 | 51.51186 | 7.60283 | 425 ft | 17 kts | 230° |
| 2026-05-08 19:55 | 51.51185 | 7.60162 | 425 ft | 14 kts | 19° |
| 2026-05-08 19:56 | 51.51237 | 7.60281 | 423 ft | 13 kts | 60° |
| 2026-05-08 19:56 | 51.51280 | 7.60399 | 422 ft | 12 kts | 59° |
| 2026-05-08 19:56 | 51.51322 | 7.60516 | 422 ft | 12 kts | 62° |
| 2026-05-08 19:56 | 51.51371 | 7.60659 | 422 ft | 18 kts | 60° |
| 2026-05-08 19:57 | 51.51442 | 7.60862 | 415 ft | 21 kts | 59° |
| 2026-05-08 19:57 | 51.51513 | 7.61056 | 418 ft | 16 kts | 35° |
| 2026-05-08 19:57 | 51.51572 | 7.60972 | 419 ft | 13 kts | 261° |
| 2026-05-08 19:57 | 51.51548 | 7.60837 | 418 ft | 12 kts | 254° |
| 2026-05-08 19:58 | 51.51528 | 7.60718 | 421 ft | 10 kts | 256° |
| 2026-05-08 19:58 | 51.51528 | 7.60681 | 421 ft | 0 kts | 285° |
| 2026-05-08 20:00 | 51.51540 | 7.60649 | 412 ft | 10 kts | 307° |
| 2026-05-08 20:00 | 51.51629 | 7.60646 | 421 ft | 20 kts | 57° |
| 2026-05-08 20:00 | 51.51800 | 7.61123 | 448 ft | 72 kts | 59° |
| 2026-05-08 20:00 | 51.52067 | 7.61870 | 693 ft | 81 kts | 60° |
| 2026-05-08 20:01 | 51.52223 | 7.62751 | 959 ft | 87 kts | 100° |
| 2026-05-08 20:01 | 51.51930 | 7.63658 | 1243 ft | 98 kts | 122° |
| 2026-05-08 20:01 | 51.51479 | 7.64516 | 1578 ft | 101 kts | 129° |
| 2026-05-08 20:01 | 51.51012 | 7.65368 | 1914 ft | 103 kts | 128° |
| 2026-05-08 20:02 | 51.50541 | 7.66262 | 2149 ft | 108 kts | 128° |
| 2026-05-08 20:02 | 51.50054 | 7.67199 | 2397 ft | 110 kts | 128° |
| 2026-05-08 20:02 | 51.49547 | 7.68176 | 2543 ft | 121 kts | 128° |
| 2026-05-08 20:02 | 51.48999 | 7.69237 | 2550 ft | 125 kts | 128° |
| 2026-05-08 20:03 | 51.48447 | 7.70317 | 2549 ft | 125 kts | 131° |
| 2026-05-08 20:03 | 51.47925 | 7.71413 | 2550 ft | 123 kts | 127° |
| 2026-05-08 20:03 | 51.47427 | 7.72518 | 2547 ft | 121 kts | 120° |
| 2026-05-08 20:03 | 51.47473 | 7.73836 | 2539 ft | 125 kts | 68° |
| 2026-05-08 20:04 | 51.47931 | 7.75033 | 2541 ft | 127 kts | 59° |
| 2026-05-08 20:04 | 51.48423 | 7.76200 | 2544 ft | 126 kts | 59° |
| 2026-05-08 20:04 | 51.48913 | 7.77366 | 2543 ft | 128 kts | 59° |
| 2026-05-08 20:04 | 51.49406 | 7.78543 | 2543 ft | 127 kts | 59° |
| 2026-05-08 20:05 | 51.49895 | 7.79711 | 2541 ft | 125 kts | 59° |
| 2026-05-08 20:05 | 51.50385 | 7.80867 | 2541 ft | 124 kts | 59° |
| 2026-05-08 20:05 | 51.50869 | 7.82012 | 2540 ft | 124 kts | 59° |
| 2026-05-08 20:05 | 51.51356 | 7.83149 | 2536 ft | 123 kts | 59° |
| 2026-05-08 20:06 | 51.51685 | 7.84367 | 2534 ft | 117 kts | 86° |
| 2026-05-08 20:06 | 51.51732 | 7.85662 | 2537 ft | 116 kts | 90° |
| 2026-05-08 20:06 | 51.51771 | 7.86969 | 2536 ft | 118 kts | 90° |
| 2026-05-08 20:06 | 51.51812 | 7.88277 | 2535 ft | 117 kts | 90° |
| 2026-05-08 20:07 | 51.51858 | 7.89576 | 2537 ft | 117 kts | 89° |
| 2026-05-08 20:07 | 51.51903 | 7.90876 | 2535 ft | 116 kts | 90° |
| 2026-05-08 20:07 | 51.51933 | 7.91737 | 2535 ft | 116 kts | 90° |
| 2026-05-08 20:07 | 51.51979 | 7.93032 | 2534 ft | 116 kts | 89° |
| 2026-05-08 20:08 | 51.52024 | 7.94324 | 2534 ft | 116 kts | 90° |
| 2026-05-08 20:08 | 51.52087 | 7.96041 | 2536 ft | 117 kts | 90° |
| 2026-05-08 20:08 | 51.52239 | 7.97324 | 2532 ft | 118 kts | 76° |
| 2026-05-08 20:08 | 51.52402 | 7.98181 | 2531 ft | 119 kts | 77° |
| 2026-05-08 20:09 | 51.52633 | 7.99432 | 2531 ft | 118 kts | 76° |
| 2026-05-08 20:09 | 51.52868 | 8.00696 | 2529 ft | 117 kts | 76° |
| 2026-05-08 20:09 | 51.53102 | 8.01954 | 2530 ft | 118 kts | 76° |
| 2026-05-08 20:09 | 51.53334 | 8.03217 | 2528 ft | 118 kts | 76° |
| 2026-05-08 20:10 | 51.53566 | 8.04474 | 2532 ft | 117 kts | 77° |
| 2026-05-08 20:10 | 51.53789 | 8.05729 | 2531 ft | 116 kts | 76° |
| 2026-05-08 20:10 | 51.54088 | 8.06930 | 2528 ft | 116 kts | 65° |
| 2026-05-08 20:10 | 51.54477 | 8.08058 | 2535 ft | 115 kts | 64° |
| 2026-05-08 20:11 | 51.54859 | 8.09196 | 2527 ft | 115 kts | 65° |
| 2026-05-08 20:11 | 51.55247 | 8.10334 | 2507 ft | 117 kts | 64° |
| 2026-05-08 20:11 | 51.55641 | 8.11475 | 2511 ft | 117 kts | 64° |
| 2026-05-08 20:11 | 51.56038 | 8.12616 | 2510 ft | 117 kts | 65° |
| 2026-05-08 20:12 | 51.56338 | 8.13820 | 2514 ft | 116 kts | 73° |
| 2026-05-08 20:12 | 51.56591 | 8.15060 | 2508 ft | 116 kts | 74° |
| 2026-05-08 20:12 | 51.56852 | 8.16288 | 2508 ft | 117 kts | 73° |
| 2026-05-08 20:12 | 51.57113 | 8.17530 | 2509 ft | 117 kts | 74° |
| 2026-05-08 20:13 | 51.57375 | 8.18768 | 2511 ft | 117 kts | 73° |
| 2026-05-08 20:13 | 51.57640 | 8.20012 | 2509 ft | 117 kts | 73° |
| 2026-05-08 20:13 | 51.57905 | 8.21254 | 2512 ft | 118 kts | 73° |
| 2026-05-08 20:13 | 51.58154 | 8.22501 | 2507 ft | 116 kts | 76° |
| 2026-05-08 20:14 | 51.58389 | 8.23737 | 2506 ft | 115 kts | 77° |
| 2026-05-08 20:14 | 51.58612 | 8.24966 | 2506 ft | 114 kts | 81° |
| 2026-05-08 20:14 | 51.58755 | 8.26224 | 2502 ft | 114 kts | 84° |
| 2026-05-08 20:14 | 51.58894 | 8.27462 | 2499 ft | 114 kts | 83° |
| 2026-05-08 20:15 | 51.59035 | 8.28711 | 2494 ft | 113 kts | 83° |
| 2026-05-08 20:15 | 51.59177 | 8.29952 | 2496 ft | 113 kts | 83° |
| 2026-05-08 20:15 | 51.59286 | 8.31210 | 2496 ft | 113 kts | 88° |
| 2026-05-08 20:15 | 51.59348 | 8.32472 | 2498 ft | 113 kts | 88° |
| 2026-05-08 20:16 | 51.59422 | 8.33740 | 2500 ft | 115 kts | 88° |
| 2026-05-08 20:16 | 51.59491 | 8.35039 | 2427 ft | 120 kts | 88° |
| 2026-05-08 20:16 | 51.59557 | 8.36409 | 2306 ft | 124 kts | 89° |
| 2026-05-08 20:16 | 51.59629 | 8.37793 | 2185 ft | 127 kts | 88° |
| 2026-05-08 20:17 | 51.59710 | 8.39207 | 2063 ft | 127 kts | 88° |
| 2026-05-08 20:17 | 51.59796 | 8.40614 | 2010 ft | 124 kts | 88° |
| 2026-05-08 20:17 | 51.59863 | 8.41952 | 1996 ft | 117 kts | 93° |
| 2026-05-08 20:17 | 51.59834 | 8.43276 | 1896 ft | 119 kts | 96° |
| 2026-05-08 20:18 | 51.59795 | 8.44598 | 1810 ft | 119 kts | 97° |
| 2026-05-08 20:18 | 51.59804 | 8.45860 | 1877 ft | 111 kts | 91° |
| 2026-05-08 20:18 | 51.59828 | 8.47093 | 1881 ft | 111 kts | 93° |
| 2026-05-08 20:18 | 51.59818 | 8.48337 | 1840 ft | 107 kts | 94° |
| 2026-05-08 20:19 | 51.59844 | 8.49417 | 1824 ft | 90 kts | 92° |
| 2026-05-08 20:19 | 51.59877 | 8.50439 | 1763 ft | 95 kts | 91° |
| 2026-05-08 20:19 | 51.59885 | 8.51522 | 1663 ft | 101 kts | 91° |
| 2026-05-08 20:19 | 51.59885 | 8.52669 | 1555 ft | 102 kts | 91° |
| 2026-05-08 20:20 | 51.59874 | 8.53831 | 1451 ft | 107 kts | 94° |
| 2026-05-08 20:20 | 51.59811 | 8.54976 | 1417 ft | 103 kts | 97° |
| 2026-05-08 20:20 | 51.59758 | 8.56110 | 1400 ft | 96 kts | 92° |
| 2026-05-08 20:20 | 51.59817 | 8.57176 | 1269 ft | 94 kts | 81° |
| 2026-05-08 20:21 | 51.60022 | 8.58145 | 1142 ft | 90 kts | 64° |
| 2026-05-08 20:21 | 51.60306 | 8.58931 | 986 ft | 73 kts | 59° |
| 2026-05-08 20:21 | 51.60586 | 8.59607 | 859 ft | 73 kts | 60° |
| 2026-05-08 20:21 | 51.60861 | 8.60292 | 768 ft | 73 kts | 60° |
| 2026-05-08 20:22 | 51.61134 | 8.60958 | 712 ft | 65 kts | 58° |
| 2026-05-08 20:22 | 51.61348 | 8.61490 | 706 ft | 50 kts | 58° |
| 2026-05-08 20:22 | 51.61588 | 8.62066 | 786 ft | 71 kts | 59° |
| 2026-05-08 20:22 | 51.61858 | 8.62760 | 981 ft | 76 kts | 58° |
| 2026-05-08 20:23 | 51.62316 | 8.63136 | 1155 ft | 86 kts | 357° |
| 2026-05-08 20:23 | 51.62872 | 8.62649 | 1294 ft | 94 kts | 330° |
| 2026-05-08 20:23 | 51.63314 | 8.61839 | 1413 ft | 105 kts | 285° |
| 2026-05-08 20:23 | 51.63221 | 8.60715 | 1654 ft | 102 kts | 246° |
| 2026-05-08 20:24 | 51.62885 | 8.59673 | 1758 ft | 109 kts | 233° |
| 2026-05-08 20:24 | 51.62503 | 8.58689 | 1843 ft | 101 kts | 232° |
| 2026-05-08 20:24 | 51.62155 | 8.57708 | 1870 ft | 102 kts | 236° |
| 2026-05-08 20:24 | 51.61823 | 8.56663 | 1830 ft | 103 kts | 237° |
| 2026-05-08 20:25 | 51.61490 | 8.55729 | 1821 ft | 90 kts | 214° |
| 2026-05-08 20:25 | 51.60942 | 8.55488 | 1674 ft | 78 kts | 172° |
| 2026-05-08 20:25 | 51.60461 | 8.55723 | 1472 ft | 67 kts | 143° |
| 2026-05-08 20:25 | 51.60082 | 8.56151 | 1280 ft | 68 kts | 134° |
| 2026-05-08 20:26 | 51.59897 | 8.56803 | 1211 ft | 66 kts | 93° |
| 2026-05-08 20:26 | 51.59941 | 8.57590 | 1168 ft | 75 kts | 78° |
| 2026-05-08 20:26 | 51.60134 | 8.58419 | 1057 ft | 82 kts | 65° |
| 2026-05-08 20:26 | 51.60420 | 8.59206 | 915 ft | 79 kts | 58° |
| 2026-05-08 20:27 | 51.60699 | 8.59886 | 814 ft | 66 kts | 61° |
| 2026-05-08 20:27 | 51.60945 | 8.60490 | 717 ft | 66 kts | 60° |
| 2026-05-08 20:27 | 51.61167 | 8.61033 | 709 ft | 50 kts | 59° |
| 2026-05-08 20:27 | 51.61412 | 8.61603 | 815 ft | 68 kts | 58° |
| 2026-05-08 20:28 | 51.61673 | 8.62216 | 1046 ft | 67 kts | 65° |
| 2026-05-08 20:28 | 51.61934 | 8.62871 | 1232 ft | 71 kts | 52° |
| 2026-05-08 20:28 | 51.62436 | 8.63083 | 1384 ft | 85 kts | 353° |
| 2026-05-08 20:28 | 51.62982 | 8.62600 | 1527 ft | 95 kts | 326° |
| 2026-05-08 20:29 | 51.63425 | 8.61839 | 1726 ft | 92 kts | 286° |
| 2026-05-08 20:29 | 51.63384 | 8.60826 | 1827 ft | 94 kts | 241° |
| 2026-05-08 20:29 | 51.63071 | 8.59879 | 1866 ft | 96 kts | 233° |
| 2026-05-08 20:29 | 51.62730 | 8.58937 | 1834 ft | 99 kts | 233° |
| 2026-05-08 20:30 | 51.62379 | 8.57990 | 1836 ft | 98 kts | 233° |
| 2026-05-08 20:30 | 51.62024 | 8.57052 | 1825 ft | 95 kts | 232° |
| 2026-05-08 20:30 | 51.61692 | 8.56160 | 1712 ft | 94 kts | 233° |
| 2026-05-08 20:30 | 51.61232 | 8.55558 | 1574 ft | 86 kts | 185° |
| 2026-05-08 20:31 | 51.60672 | 8.55672 | 1447 ft | 78 kts | 150° |
| 2026-05-08 20:31 | 51.60240 | 8.56138 | 1292 ft | 73 kts | 133° |
| 2026-05-08 20:31 | 51.59968 | 8.56794 | 1173 ft | 70 kts | 105° |
| 2026-05-08 20:31 | 51.59958 | 8.57592 | 1128 ft | 74 kts | 75° |
| 2026-05-08 20:32 | 51.60154 | 8.58412 | 1029 ft | 81 kts | 67° |
| 2026-05-08 20:32 | 51.60421 | 8.59199 | 916 ft | 79 kts | 59° |
| 2026-05-08 20:32 | 51.60716 | 8.59932 | 802 ft | 77 kts | 58° |
| 2026-05-08 20:32 | 51.61001 | 8.60628 | 719 ft | 71 kts | 59° |
| 2026-05-08 20:33 | 51.61231 | 8.61196 | 712 ft | 51 kts | 56° |
| 2026-05-08 20:33 | 51.61395 | 8.61597 | 705 ft | 32 kts | 59° |
| 2026-05-08 20:33 | 51.61436 | 8.61791 | 703 ft | 14 kts | 89° |
| 2026-05-08 20:33 | 51.61439 | 8.61904 | 706 ft | 7 kts | 87° |
| 2026-05-08 20:34 | 51.61439 | 8.61940 | 707 ft | 0 kts | 94° |
| 2026-05-08 20:34 | 51.61426 | 8.61994 | 706 ft | 16 kts | 131° |
| 2026-05-08 20:34 | 51.61332 | 8.61928 | 712 ft | 16 kts | 240° |
| 2026-05-08 20:35 | 51.61275 | 8.61788 | 712 ft | 14 kts | 236° |
| 2026-05-08 20:35 | 51.61221 | 8.61687 | 714 ft | 8 kts | 191° |
| 2026-05-08 20:35 | 51.61211 | 8.61688 | 714 ft | 0 kts | 153° |
| 2026-05-08 20:35 | 51.61208 | 8.61680 | 713 ft | 8 kts | 286° |
| 2026-05-08 20:36 | 51.61161 | 8.61507 | 712 ft | 16 kts | 233° |
| 2026-05-08 20:36 | 51.61100 | 8.61534 | 722 ft | 5 kts | 147° |
| 2026-05-08 20:36 | 51.61074 | 8.61562 | 723 ft | 6 kts | 144° |
| 2026-05-08 20:36 | 51.61035 | 8.61598 | 725 ft | 7 kts | 132° |
| 2026-05-08 20:37 | 51.60998 | 8.61608 | 725 ft | 7 kts | 242° |
| 2026-05-08 20:37 | 51.60974 | 8.61613 | 725 ft | 1 kts | 60° |
| 2026-05-08 20:37 | 51.60982 | 8.61610 | 725 ft | 0 kts | 325° |